createdAt,value
2023-03-03T00:00:07.717Z,98701.94
2023-03-03T00:02:43.304Z,98705.41
2023-03-03T00:05:10.530Z,98699.31
2023-03-03T00:07:37.218Z,98699.25
2023-03-03T00:10:04.249Z,98707.94
2023-03-03T00:12:31.220Z,98704.34
2023-03-03T00:14:58.173Z,98706.00
2023-03-03T00:17:27.554Z,98703.31
2023-03-03T00:19:54.737Z,98702.41
2023-03-03T00:22:36.374Z,98707.69
2023-03-03T00:25:29.515Z,98702.53
2023-03-03T00:28:01.375Z,98702.63
2023-03-03T00:30:29.114Z,98708.81
2023-03-03T00:32:55.960Z,98704.50
2023-03-03T00:35:30.740Z,98705.38
2023-03-03T00:38:04.486Z,98711.44
2023-03-03T00:40:38.197Z,98708.81
2023-03-03T00:43:24.233Z,98707.97
2023-03-03T00:45:53.035Z,98701.84
2023-03-03T00:48:20.022Z,98706.19
2023-03-03T00:50:46.663Z,98707.84
2023-03-03T00:53:18.982Z,98716.56
2023-03-03T00:55:47.787Z,98716.41
2023-03-03T00:58:14.741Z,98712.91
2023-03-03T01:00:44.822Z,98713.72
2023-03-03T01:03:25.037Z,98717.97
2023-03-03T01:05:52.997Z,98706.59
2023-03-03T01:08:20.938Z,98709.25
2023-03-03T01:10:57.332Z,98711.06
2023-03-03T01:13:27.447Z,98707.59
2023-03-03T01:15:54.610Z,98711.16
2023-03-03T01:18:21.745Z,98703.28
2023-03-03T01:20:48.325Z,98711.88
2023-03-03T01:23:14.992Z,98710.13
2023-03-03T01:25:41.807Z,98717.09
2023-03-03T01:28:08.560Z,98718.69
2023-03-03T01:30:35.399Z,98709.94
2023-03-03T01:33:02.177Z,98714.13
2023-03-03T01:35:29.993Z,98715.91
2023-03-03T01:37:57.155Z,98704.63
2023-03-03T01:40:27.412Z,98708.91
2023-03-03T01:42:54.340Z,98707.16
2023-03-03T01:45:27.201Z,98704.53
2023-03-03T01:48:10.521Z,98706.28
2023-03-03T01:50:40.909Z,98704.53
2023-03-03T01:53:13.605Z,98707.72
2023-03-03T01:55:41.935Z,98704.13
2023-03-03T01:58:13.861Z,98705.88
2023-03-03T02:00:44.537Z,98704.94
2023-03-03T02:03:11.902Z,98694.53
2023-03-03T02:05:41.980Z,98703.28
2023-03-03T02:08:16.133Z,98704.06
2023-03-03T02:10:45.582Z,98697.09
2023-03-03T02:13:12.435Z,98693.41
2023-03-03T02:15:39.296Z,98685.59
2023-03-03T02:18:15.683Z,98691.56
2023-03-03T02:21:00.159Z,98689.59
2023-03-03T02:23:34.365Z,98689.31
2023-03-03T02:26:13.071Z,98683.63
2023-03-03T02:28:40.653Z,98687.28
2023-03-03T02:31:13.463Z,98688.19
2023-03-03T02:33:43.003Z,98692.47
2023-03-03T02:36:19.619Z,98693.44
2023-03-03T02:39:08.907Z,98691.66
2023-03-03T02:41:40.539Z,98695.97
2023-03-03T02:44:17.912Z,98708.84
2023-03-03T02:46:49.319Z,98697.53
2023-03-03T02:49:19.824Z,98694.91
2023-03-03T02:51:46.448Z,98695.81
2023-03-03T02:54:15.170Z,98694.91
2023-03-03T02:56:42.085Z,98698.44
2023-03-03T02:59:09.066Z,98698.44
2023-03-03T03:01:40.978Z,98692.25
2023-03-03T03:04:15.295Z,98698.41
2023-03-03T03:06:44.975Z,98702.91
2023-03-03T03:09:14.462Z,98698.59
2023-03-03T03:11:41.797Z,98697.75
2023-03-03T03:14:11.578Z,98695.13
2023-03-03T03:16:40.102Z,98697.72
2023-03-03T03:19:07.228Z,98696.91
2023-03-03T03:21:35.206Z,98697.75
2023-03-03T03:24:02.614Z,98692.34
2023-03-03T03:26:29.547Z,98700.91
2023-03-03T03:28:56.799Z,98689.66
2023-03-03T03:31:23.599Z,98689.69
2023-03-03T03:33:50.421Z,98689.78
2023-03-03T03:36:17.638Z,98692.41
2023-03-03T03:38:44.403Z,98694.03
2023-03-03T03:41:12.754Z,98692.03
2023-03-03T03:43:39.987Z,98691.91
2023-03-03T03:46:07.405Z,98700.66
2023-03-03T03:48:34.946Z,98695.41
2023-03-03T03:51:03.914Z,98691.78
2023-03-03T03:53:31.928Z,98693.47
2023-03-03T03:55:58.889Z,98690.19
2023-03-03T03:58:25.991Z,98697.16
2023-03-03T04:01:03.901Z,98698.09
2023-03-03T04:03:31.201Z,98690.31
2023-03-03T04:05:57.898Z,98696.41
2023-03-03T04:08:25.067Z,98702.41
2023-03-03T04:10:51.837Z,98702.34
2023-03-03T04:13:18.558Z,98707.41
2023-03-03T04:15:45.316Z,98709.94
2023-03-03T04:18:12.240Z,98709.78
2023-03-03T04:20:40.378Z,98708.75
2023-03-03T04:23:07.592Z,98714.81
2023-03-03T04:25:34.359Z,98714.81
2023-03-03T04:28:03.575Z,98718.97
2023-03-03T04:30:33.040Z,98716.13
2023-03-03T04:32:59.760Z,98722.25
2023-03-03T04:35:27.632Z,98721.31
2023-03-03T04:37:54.507Z,98723.19
2023-03-03T04:40:21.268Z,98727.66
2023-03-03T04:42:50.210Z,98725.09
2023-03-03T04:45:17.500Z,98722.53
2023-03-03T04:47:45.426Z,98724.31
2023-03-03T04:50:12.803Z,98730.47
2023-03-03T04:52:40.539Z,98732.19
2023-03-03T04:55:10.574Z,98736.66
2023-03-03T04:57:38.736Z,98733.25
2023-03-03T05:00:06.656Z,98727.16
2023-03-03T05:02:33.349Z,98734.03
2023-03-03T05:05:00.735Z,98734.03
2023-03-03T05:07:27.354Z,98737.56
2023-03-03T05:09:54.008Z,98741.03
2023-03-03T05:12:21.195Z,98739.34
2023-03-03T05:14:48.384Z,98735.91
2023-03-03T05:17:15.089Z,98738.59
2023-03-03T05:19:41.716Z,98739.44
2023-03-03T05:22:08.357Z,98750.63
2023-03-03T05:24:34.939Z,98741.88
2023-03-03T05:27:03.329Z,98747.03
2023-03-03T05:29:31.530Z,98739.16
2023-03-03T05:31:58.592Z,98737.34
2023-03-03T05:34:25.517Z,98740.00
2023-03-03T05:36:52.203Z,98746.16
2023-03-03T05:39:18.831Z,98746.25
2023-03-03T05:41:45.478Z,98748.75
2023-03-03T05:44:12.869Z,98751.16
2023-03-03T05:46:39.820Z,98751.13
2023-03-03T05:49:06.448Z,98756.28
2023-03-03T05:51:33.145Z,98762.19
2023-03-03T05:54:02.918Z,98761.19
2023-03-03T05:56:29.538Z,98765.53
2023-03-03T05:58:56.331Z,98762.97
2023-03-03T06:01:23.006Z,98773.44
2023-03-03T06:03:49.748Z,98776.88
2023-03-03T06:06:17.102Z,98769.84
2023-03-03T06:08:43.752Z,98778.59
2023-03-03T06:11:10.634Z,98777.59
2023-03-03T06:13:37.356Z,98779.94
2023-03-03T06:16:04.204Z,98785.94
2023-03-03T06:18:30.848Z,98786.91
2023-03-03T06:20:57.529Z,98793.53
2023-03-03T06:23:24.139Z,98796.22
2023-03-03T06:25:50.868Z,98803.03
2023-03-03T06:28:17.467Z,98800.47
2023-03-03T06:30:44.197Z,98805.06
2023-03-03T06:33:11.335Z,98804.34
2023-03-03T06:35:38.980Z,98808.88
2023-03-03T06:38:06.717Z,98807.06
2023-03-03T06:40:33.377Z,98808.78
2023-03-03T06:43:02.336Z,98819.50
2023-03-03T06:45:29.299Z,98811.84
2023-03-03T06:47:56.008Z,98817.19
2023-03-03T06:50:22.733Z,98816.38
2023-03-03T06:52:50.260Z,98821.88
2023-03-03T06:55:23.160Z,98818.69
2023-03-03T06:57:49.806Z,98824.34
2023-03-03T07:00:24.755Z,98822.09
2023-03-03T07:03:08.139Z,98819.84
2023-03-03T07:05:34.881Z,98824.47
2023-03-03T07:08:01.683Z,98815.09
2023-03-03T07:10:30.495Z,98819.88
2023-03-03T07:13:06.981Z,98820.13
2023-03-03T07:15:35.352Z,98809.25
2023-03-03T07:18:03.210Z,98818.25
2023-03-03T07:20:39.389Z,98813.31
2023-03-03T07:23:42.347Z,98813.63
2023-03-03T07:26:17.132Z,98808.78
2023-03-03T07:28:58.842Z,98797.38
2023-03-03T07:31:39.147Z,98797.03
2023-03-03T07:34:37.286Z,98787.59
2023-03-03T07:37:13.246Z,98788.97
2023-03-03T07:39:44.747Z,98780.03
2023-03-03T07:42:33.279Z,98768.78
2023-03-03T07:45:32.399Z,98776.78
2023-03-03T07:48:25.486Z,98776.09
2023-03-03T07:50:52.702Z,98775.22
2023-03-03T07:53:25.878Z,98771.19
2023-03-03T07:55:52.579Z,98773.34
2023-03-03T07:58:33.821Z,98780.03
2023-03-03T08:01:36.160Z,98784.69
2023-03-03T08:04:07.394Z,98784.47
2023-03-03T08:06:44.377Z,98782.91
2023-03-03T08:09:10.914Z,98789.88
2023-03-03T08:11:52.055Z,98782.88
2023-03-03T08:14:27.984Z,98778.63
2023-03-03T08:16:55.700Z,98776.44
2023-03-03T08:19:23.115Z,98787.19
2023-03-03T08:21:50.178Z,98790.13
2023-03-03T08:24:16.779Z,98786.50
2023-03-03T08:26:43.927Z,98787.59
2023-03-03T08:29:11.952Z,98787.31
2023-03-03T08:31:41.593Z,98787.22
2023-03-03T08:34:08.732Z,98781.94
2023-03-03T08:36:35.376Z,98772.41
2023-03-03T08:39:04.192Z,98779.38
2023-03-03T08:41:30.822Z,98788.94
2023-03-03T08:43:57.552Z,98782.38
2023-03-03T08:46:24.372Z,98778.81
2023-03-03T08:48:51.409Z,98775.38
2023-03-03T08:51:18.070Z,98766.03
2023-03-03T08:53:44.835Z,98761.81
2023-03-03T08:56:11.438Z,98759.78
2023-03-03T08:58:41.984Z,98773.66
2023-03-03T09:01:11.830Z,98775.06
2023-03-03T09:03:38.459Z,98770.19
2023-03-03T09:06:05.303Z,98767.63
2023-03-03T09:08:32.155Z,98777.72
2023-03-03T09:10:59.172Z,98774.31
2023-03-03T09:13:27.256Z,98776.34
2023-03-03T09:15:54.073Z,98782.53
2023-03-03T09:18:26.102Z,98781.28
2023-03-03T09:20:57.382Z,98776.34
2023-03-03T09:23:24.165Z,98787.13
2023-03-03T09:25:52.117Z,98783.91
2023-03-03T09:28:22.712Z,98784.16
2023-03-03T09:30:51.057Z,98778.13
2023-03-03T09:33:23.951Z,98786.75
2023-03-03T09:36:05.880Z,98788.13
2023-03-03T09:38:34.227Z,98777.97
2023-03-03T09:41:28.519Z,98778.84
2023-03-03T09:44:04.786Z,98787.06
2023-03-03T09:47:05.483Z,98782.56
2023-03-03T09:49:34.912Z,98775.56
2023-03-03T09:52:23.925Z,98782.78
2023-03-03T09:54:55.006Z,98779.53
2023-03-03T09:57:42.015Z,98787.38
2023-03-03T10:00:30.351Z,98784.03
2023-03-03T10:02:59.777Z,98782.81
2023-03-03T10:05:41.273Z,98792.50
2023-03-03T10:08:42.483Z,98796.38
2023-03-03T10:11:23.454Z,98795.13
2023-03-03T10:14:02.021Z,98799.28
2023-03-03T10:16:44.669Z,98812.59
2023-03-03T10:19:34.239Z,98806.56
2023-03-03T10:22:08.007Z,98825.09
2023-03-03T10:24:55.625Z,98816.41
2023-03-03T10:27:28.290Z,98823.75
2023-03-03T10:30:10.190Z,98828.41
2023-03-03T10:32:55.173Z,98820.59
2023-03-03T10:35:47.097Z,98808.50
2023-03-03T10:38:49.812Z,98810.38
2023-03-03T10:41:39.765Z,98816.16
2023-03-03T10:44:21.744Z,98816.63
2023-03-03T10:46:51.533Z,98812.19
2023-03-03T10:49:42.443Z,98806.28
2023-03-03T10:52:31.478Z,98806.69
2023-03-03T10:55:15.250Z,98807.03
2023-03-03T10:58:02.252Z,98801.22
2023-03-03T11:00:35.465Z,98803.03
2023-03-03T11:03:29.639Z,98807.22
2023-03-03T11:06:15.386Z,98814.03
2023-03-03T11:08:54.384Z,98815.78
2023-03-03T11:11:36.427Z,98815.78
2023-03-03T11:14:54.442Z,98812.72
2023-03-03T11:17:38.031Z,98804.53
2023-03-03T11:20:23.331Z,98797.69
2023-03-03T11:23:23.517Z,98798.50
2023-03-03T11:25:56.614Z,98799.84
2023-03-03T11:28:29.157Z,98803.69
2023-03-03T11:31:07.905Z,98809.31
2023-03-03T11:33:39.126Z,98800.88
2023-03-03T11:36:18.253Z,98790.88
2023-03-03T11:38:53.370Z,98797.88
2023-03-03T11:41:32.469Z,98794.13
2023-03-03T11:44:09.900Z,98788.69
2023-03-03T11:46:51.756Z,98785.00
2023-03-03T11:49:18.489Z,98781.66
2023-03-03T11:52:12.734Z,98784.97
2023-03-03T11:54:49.973Z,98777.78
2023-03-03T11:57:23.629Z,98779.41
2023-03-03T12:00:18.809Z,98773.06
2023-03-03T12:03:04.575Z,98777.78
2023-03-03T12:05:56.190Z,98773.81
2023-03-03T12:09:00.649Z,98769.66
2023-03-03T12:11:48.789Z,98765.34
2023-03-03T12:14:30.471Z,98765.09
2023-03-03T12:17:13.055Z,98771.41
2023-03-03T12:19:59.651Z,98761.28
2023-03-03T12:22:37.284Z,98761.09
2023-03-03T12:25:41.548Z,98759.41
2023-03-03T12:28:25.878Z,98761.72
2023-03-03T12:31:25.084Z,98762.75
2023-03-03T12:34:01.696Z,98765.09
2023-03-03T12:36:49.685Z,98763.72
2023-03-03T12:39:35.226Z,98767.50
2023-03-03T12:42:24.705Z,98760.44
2023-03-03T12:45:24.061Z,98774.66
2023-03-03T12:47:55.962Z,98773.06
2023-03-03T12:50:47.635Z,98762.88
2023-03-03T12:53:26.115Z,98767.00
2023-03-03T12:56:04.602Z,98764.00
2023-03-03T12:58:46.256Z,98782.25
2023-03-03T13:01:28.138Z,98779.31
2023-03-03T13:04:10.352Z,98778.59
2023-03-03T13:06:52.091Z,98784.25
2023-03-03T13:09:37.095Z,98789.78
2023-03-03T13:12:08.954Z,98792.16
2023-03-03T13:14:44.497Z,98796.06
2023-03-03T13:17:19.976Z,98783.72
2023-03-03T13:20:00.919Z,98784.00
2023-03-03T13:22:30.664Z,98790.03
2023-03-03T13:25:07.732Z,98793.66
2023-03-03T13:27:40.284Z,98781.19
2023-03-03T13:30:16.387Z,98784.16
2023-03-03T13:33:10.634Z,98780.19
2023-03-03T13:35:53.950Z,98785.34
2023-03-03T13:38:24.846Z,98782.53
2023-03-03T13:41:04.273Z,98788.28
2023-03-03T13:43:40.309Z,98784.84
2023-03-03T13:46:21.646Z,98780.56
2023-03-03T13:49:15.727Z,98778.59
2023-03-03T13:51:51.591Z,98779.91
2023-03-03T13:54:39.528Z,98777.16
2023-03-03T13:57:15.253Z,98777.13
2023-03-03T14:00:19.514Z,98774.91
2023-03-03T14:03:20.511Z,98776.56
2023-03-03T14:06:02.179Z,98773.13
2023-03-03T14:08:47.629Z,98773.66
2023-03-03T14:11:41.935Z,98762.97
2023-03-03T14:14:43.587Z,98764.78
2023-03-03T14:17:55.082Z,98758.03
2023-03-03T14:20:28.947Z,98760.34
2023-03-03T14:23:10.206Z,98752.78
2023-03-03T14:26:04.658Z,98748.00
2023-03-03T14:28:46.381Z,98751.69
2023-03-03T14:31:26.411Z,98744.31
2023-03-03T14:34:11.490Z,98749.69
2023-03-03T14:36:43.246Z,98741.41
2023-03-03T14:39:28.723Z,98746.47
2023-03-03T14:41:57.448Z,98755.19
2023-03-03T14:44:30.216Z,98749.16
2023-03-03T14:47:08.983Z,98746.38
2023-03-03T14:49:38.408Z,98743.22
2023-03-03T14:52:20.212Z,98749.44
2023-03-03T14:54:49.282Z,98740.78
2023-03-03T14:57:21.636Z,98743.00
2023-03-03T14:59:58.446Z,98742.25
2023-03-03T15:02:30.678Z,98743.94
2023-03-03T15:05:26.747Z,98741.28
2023-03-03T15:08:15.038Z,98735.25
2023-03-03T15:10:44.227Z,98740.97
2023-03-03T15:13:33.308Z,98737.28
2023-03-03T15:15:59.917Z,98734.56
2023-03-03T15:18:28.035Z,98737.00
2023-03-03T15:21:18.702Z,98733.38
2023-03-03T15:24:06.625Z,98734.34
2023-03-03T15:26:35.924Z,98730.03
2023-03-03T15:29:07.846Z,98732.66
2023-03-03T15:31:50.044Z,98734.63
2023-03-03T15:34:31.869Z,98732.94
2023-03-03T15:37:04.742Z,98735.56
2023-03-03T15:39:37.085Z,98729.28
2023-03-03T15:42:15.796Z,98732.84
2023-03-03T15:44:58.929Z,98732.22
2023-03-03T15:48:03.980Z,98740.28
2023-03-03T15:50:33.387Z,98739.41
2023-03-03T15:53:27.464Z,98747.22
2023-03-03T15:56:10.953Z,98749.63
2023-03-03T15:59:02.601Z,98751.44
2023-03-03T16:01:41.665Z,98749.22
2023-03-03T16:04:15.443Z,98750.44
2023-03-03T16:06:53.856Z,98758.44
2023-03-03T16:09:59.461Z,98756.72
2023-03-03T16:12:59.653Z,98758.50
2023-03-03T16:15:29.245Z,98763.41
2023-03-03T16:18:20.910Z,98764.44
2023-03-03T16:21:08.774Z,98759.47
2023-03-03T16:23:47.199Z,98771.31
2023-03-03T16:26:25.057Z,98765.16
2023-03-03T16:29:08.567Z,98767.78
2023-03-03T16:31:54.065Z,98769.88
2023-03-03T16:34:42.806Z,98768.31
2023-03-03T16:37:21.449Z,98774.84
2023-03-03T16:39:53.751Z,98776.94
2023-03-03T16:42:26.737Z,98783.28
2023-03-03T16:45:15.722Z,98783.25
2023-03-03T16:47:58.183Z,98791.19
2023-03-03T16:50:40.055Z,98794.88
2023-03-03T16:53:32.204Z,98791.63
2023-03-03T16:56:17.710Z,98798.88
2023-03-03T16:59:37.191Z,98800.78
2023-03-03T17:02:25.193Z,98808.06
2023-03-03T17:05:00.454Z,98814.38
2023-03-03T17:07:46.207Z,98819.97
2023-03-03T17:10:24.904Z,98827.16
2023-03-03T17:13:13.264Z,98835.22
2023-03-03T17:16:05.179Z,98825.66
2023-03-03T17:18:44.701Z,98831.09
2023-03-03T17:21:53.168Z,98827.69
2023-03-03T17:24:57.687Z,98833.16
2023-03-03T17:27:33.456Z,98835.81
2023-03-03T17:30:22.420Z,98842.16
2023-03-03T17:33:07.992Z,98844.84
2023-03-03T17:35:56.769Z,98849.34
2023-03-03T17:38:38.472Z,98860.88
2023-03-03T17:41:20.767Z,98854.81
2023-03-03T17:44:15.238Z,98858.44
2023-03-03T17:46:51.482Z,98862.03
2023-03-03T17:49:43.625Z,98873.72
2023-03-03T17:52:35.289Z,98878.94
2023-03-03T17:55:17.166Z,98879.91
2023-03-03T17:58:02.538Z,98890.56
2023-03-03T18:00:50.251Z,98897.91
2023-03-03T18:03:22.808Z,98890.03
2023-03-03T18:06:05.059Z,98892.94
2023-03-03T18:08:55.753Z,98895.63
2023-03-03T18:11:41.400Z,98901.97
2023-03-03T18:14:23.224Z,98910.91
2023-03-03T18:17:09.841Z,98899.56
2023-03-03T18:19:56.508Z,98907.50
2023-03-03T18:22:29.102Z,98909.34
2023-03-03T18:25:08.279Z,98916.50
2023-03-03T18:27:37.488Z,98920.03
2023-03-03T18:30:20.501Z,98926.19
2023-03-03T18:32:56.418Z,98928.00
2023-03-03T18:35:40.091Z,98930.66
2023-03-03T18:38:16.014Z,98933.25
2023-03-03T18:40:57.772Z,98935.94
2023-03-03T18:43:39.432Z,98943.91
2023-03-03T18:46:10.670Z,98954.56
2023-03-03T18:49:01.448Z,98955.47
2023-03-03T18:51:49.239Z,98954.66
2023-03-03T18:54:20.908Z,98956.47
2023-03-03T18:56:50.195Z,98965.31
2023-03-03T18:59:35.209Z,98957.44
2023-03-03T19:02:32.551Z,98967.97
2023-03-03T19:05:09.004Z,98966.25
2023-03-03T19:07:41.670Z,98973.31
2023-03-03T19:10:34.263Z,98971.56
2023-03-03T19:13:01.015Z,98972.44
2023-03-03T19:15:51.279Z,98975.13
2023-03-03T19:18:25.605Z,98982.16
2023-03-03T19:20:59.457Z,98976.00
2023-03-03T19:23:48.056Z,98977.78
2023-03-03T19:26:29.642Z,98979.56
2023-03-03T19:29:31.514Z,98980.47
2023-03-03T19:32:19.859Z,98983.97
2023-03-03T19:35:01.577Z,98989.25
2023-03-03T19:37:37.300Z,98991.94
2023-03-03T19:40:27.015Z,98991.06
2023-03-03T19:43:22.217Z,98996.34
2023-03-03T19:45:51.836Z,98996.34
2023-03-03T19:48:34.201Z,98999.88
2023-03-03T19:51:24.209Z,99003.34
2023-03-03T19:54:12.191Z,99004.25
2023-03-03T19:56:49.911Z,99014.75
2023-03-03T19:59:36.594Z,99010.34
2023-03-03T20:02:26.620Z,99017.38
2023-03-03T20:05:13.814Z,99017.38
2023-03-03T20:07:50.082Z,99016.47
2023-03-03T20:10:16.663Z,99030.44
2023-03-03T20:13:08.117Z,99028.66
2023-03-03T20:15:59.078Z,99032.16
2023-03-03T20:18:28.387Z,99025.94
2023-03-03T20:21:07.357Z,99036.50
2023-03-03T20:23:49.017Z,99036.44
2023-03-03T20:26:19.622Z,99033.81
2023-03-03T20:28:55.371Z,99039.09
2023-03-03T20:31:36.325Z,99047.81
2023-03-03T20:34:32.099Z,99050.41
2023-03-03T20:37:08.915Z,99046.00
2023-03-03T20:40:02.483Z,99050.38
2023-03-03T20:43:06.531Z,99052.13
2023-03-03T20:45:59.609Z,99061.78
2023-03-03T20:48:50.977Z,99059.94
2023-03-03T20:51:42.873Z,99062.56
2023-03-03T20:54:15.661Z,99067.78
2023-03-03T20:57:00.632Z,99073.06
2023-03-03T20:59:40.755Z,99064.28
2023-03-03T21:02:25.683Z,99071.31
2023-03-03T21:05:22.567Z,99070.34
2023-03-03T21:07:56.906Z,99077.31
2023-03-03T21:10:35.811Z,99077.25
2023-03-03T21:13:41.205Z,99084.31
2023-03-03T21:16:12.532Z,99080.72
2023-03-03T21:18:39.547Z,99083.19
2023-03-03T21:21:08.007Z,99080.56
2023-03-03T21:23:34.753Z,99087.59
2023-03-03T21:26:01.446Z,99080.56
2023-03-03T21:28:33.560Z,99075.25
2023-03-03T21:31:09.159Z,99083.91
2023-03-03T21:33:42.098Z,99081.19
2023-03-03T21:36:10.898Z,99077.66
2023-03-03T21:38:39.101Z,99080.28
2023-03-03T21:41:07.618Z,99079.38
2023-03-03T21:43:36.702Z,99073.28
2023-03-03T21:46:03.520Z,99080.16
2023-03-03T21:48:30.596Z,99077.56
2023-03-03T21:50:57.243Z,99079.28
2023-03-03T21:53:26.458Z,99081.84
2023-03-03T21:55:53.722Z,99086.19
2023-03-03T21:58:20.412Z,99080.88
2023-03-03T22:00:47.102Z,99082.56
2023-03-03T22:03:15.389Z,99084.31
2023-03-03T22:05:42.106Z,99080.78
2023-03-03T22:08:09.700Z,99081.53
2023-03-03T22:10:36.348Z,99079.72
2023-03-03T22:13:03.116Z,99086.66
2023-03-03T22:15:33.178Z,99086.66
2023-03-03T22:18:00.677Z,99081.38
2023-03-03T22:20:27.468Z,99081.47
2023-03-03T22:22:54.261Z,99076.09
2023-03-03T22:25:20.935Z,99076.03
2023-03-03T22:27:47.624Z,99078.50
2023-03-03T22:30:14.476Z,99081.78
2023-03-03T22:32:41.144Z,99087.81
2023-03-03T22:35:08.582Z,99087.69
2023-03-03T22:37:35.384Z,99089.47
2023-03-03T22:40:02.462Z,99086.78
2023-03-03T22:42:29.309Z,99085.03
2023-03-03T22:44:55.898Z,99086.00
2023-03-03T22:47:22.543Z,99094.59
2023-03-03T22:49:49.154Z,99090.16
2023-03-03T22:52:15.825Z,99089.25
2023-03-03T22:54:42.527Z,99084.91
2023-03-03T22:57:09.266Z,99091.06
2023-03-03T22:59:35.925Z,99090.16
2023-03-03T23:02:02.825Z,99090.97
2023-03-03T23:04:29.645Z,99097.09
2023-03-03T23:06:57.143Z,99095.28
2023-03-03T23:09:23.923Z,99099.72
2023-03-03T23:11:50.599Z,99107.69
2023-03-03T23:14:17.507Z,99111.88
2023-03-03T23:16:45.447Z,99117.88
2023-03-03T23:19:12.195Z,99110.06
2023-03-03T23:21:39.042Z,99111.66
2023-03-03T23:24:06.499Z,99119.50
2023-03-03T23:26:33.166Z,99120.44
2023-03-03T23:28:59.786Z,99123.09
2023-03-03T23:31:26.999Z,99128.28
2023-03-03T23:33:53.666Z,99123.91
2023-03-03T23:36:20.335Z,99129.09
2023-03-03T23:38:47.074Z,99132.38
2023-03-03T23:41:13.709Z,99138.38
2023-03-03T23:43:40.751Z,99135.72
2023-03-03T23:46:07.422Z,99133.72
2023-03-03T23:48:34.056Z,99143.25
2023-03-03T23:51:01.487Z,99136.19
2023-03-03T23:53:28.113Z,99152.81
2023-03-03T23:55:54.881Z,99147.59
2023-03-03T23:58:21.507Z,99145.72
